MOL Beacon — VRNL2 — position and weather

sailwx.info

Track history (hours):
 
Tides and Currents Weather Stations Pressure Air Temp Water Temp Dewpoint Dewpoint Depression Visibility Wind Speed Wind Dir Waves Ship Positions

MOL Beacon

Last reported at 2017-Nov-15 17:30 UTC. Time now 2017-Nov-22 20:47 UTC.
Position N 34°26' W 124°52'.

Length 337 m.

Type: Cargo ship. MMSI: 400600310.

Date/timePositionNaut miles runAvg speedWind from/ knotsBaromVisibWave heightAir tempDewpointWater temp
2017-Nov-15 17:30N 34°26' W 124°52'814.7
2017-Nov-15 16:59N 34°26' W 124°43'815.0
2017-Nov-15 16:26N 34°26' W 124°33'715.3
2017-Nov-15 15:59N 34°26' W 124°25'1315.2
2017-Nov-15 15:09N 34°26' W 124°09'6614.9
2017-Nov-15 10:44N 34°26' W 122°50'314.7
2017-Nov-15 10:30N 34°26' W 122°46'714.5
2017-Nov-15 10:00N 34°26' W 122°37'1114.3
2017-Nov-15 09:14N 34°26' W 122°23'313.9
2017-Nov-15 09:00N 34°26' W 122°20'1014.3
2017-Nov-15 08:16N 34°26' W 122°07'414.3
2017-Nov-15 08:00N 34°26' W 122°02'714.0
2017-Nov-15 07:30N 34°26' W 121°54'713.8
2017-Nov-15 06:59N 34°26' W 121°45'714.3
2017-Nov-15 06:30N 34°26' W 121°37'714.6
2017-Nov-15 06:00N 34°26' W 121°28'714.5
2017-Nov-15 05:30N 34°26' W 121°19'714.6
2017-Nov-15 05:00N 34°26' W 121°10'714.3
2017-Nov-15 04:29N 34°26' W 121°01'714.0
2017-Nov-15 04:00N 34°26' W 120°53'5 9.8
2017-Nov-15 03:29N 34°25' W 120°47'5 9.6
2017-Nov-15 02:55N 34°24' W 120°41'4 9.6
2017-Nov-15 02:29N 34°23' W 120°36'7 9.7
2017-Nov-15 01:47N 34°21' W 120°28'3 9.6
2017-Nov-15 01:28N 34°20' W 120°25'6 9.7
2017-Nov-15 00:52N 34°19' W 120°18'4 9.7
2017-Nov-15 00:30N 34°18' W 120°14'5 9.6
2017-Nov-14 23:58N 34°16' W 120°08'5 9.8
2017-Nov-14 23:28N 34°15' W 120°02'6 9.7
2017-Nov-14 22:54N 34°13' W 119°55'4 9.5
2017-Nov-14 22:30N 34°12' W 119°51'5 9.3
2017-Nov-14 22:00N 34°11' W 119°46'5 9.7
2017-Nov-14 21:30N 34°10' W 119°40'5 9.7
2017-Nov-14 20:59N 34°09' W 119°34'5 9.8
2017-Nov-14 20:29N 34°07' W 119°28'5 9.7
2017-Nov-14 19:57N 34°06' W 119°23'510.9
2017-Nov-14 19:27N 34°04' W 119°16'511.1
2017-Nov-14 19:00N 34°02' W 119°11'611.3
2017-Nov-14 18:30N 33°59' W 119°05'611.5
2017-Nov-14 18:00N 33°57' W 118°59'611.5
2017-Nov-14 17:27N 33°53' W 118°52'511.4
2017-Nov-14 17:00N 33°51' W 118°47'611.5
2017-Nov-14 16:30N 33°48' W 118°41'611.5
2017-Nov-14 16:00N 33°45' W 118°35'611.6
2017-Nov-14 15:30N 33°42' W 118°29'611.3
2017-Nov-14 15:00N 33°39' W 118°23'611.0
2017-Nov-14 14:30N 33°38' W 118°16'4 8.9
2017-Nov-14 14:00N 33°43' W 118°15'3 5.2
2017-Nov-14 13:28N 33°45' W 118°17'0 0.7
2017-Nov-14 12:49N 33°46' W 118°16'0 0.0
2017-Nov-14 12:25N 33°46' W 118°16'0 0.0
2017-Nov-14 11:37N 33°46' W 118°16'0 0.0
2017-Nov-14 11:25N 33°46' W 118°16'0 0.0
2017-Nov-14 10:58N 33°46' W 118°16'0 0.0
2017-Nov-14 10:25N 33°46' W 118°16'0 0.0
2017-Nov-14 09:55N 33°46' W 118°16'0 0.0
2017-Nov-14 09:25N 33°46' W 118°16'0 0.0
2017-Nov-14 08:55N 33°46' W 118°16'0 0.0
2017-Nov-14 05:07N 33°46' W 118°16'0 0.0
2017-Nov-14 04:55N 33°46' W 118°16'0 0.0
2017-Nov-14 04:25N 33°46' W 118°16'0 0.0
2017-Nov-14 03:55N 33°46' W 118°16'0 0.0
2017-Nov-14 03:25N 33°46' W 118°16'0 0.0
2017-Nov-14 02:55N 33°46' W 118°16'0 0.0
2017-Nov-14 02:25N 33°46' W 118°16'0 0.0
2017-Nov-14 01:49N 33°46' W 118°16'0 0.0
2017-Nov-14 00:49N 33°46' W 118°16'0 0.0
2017-Nov-14 00:25N 33°46' W 118°16'0 0.0
2017-Nov-13 23:58N 33°46' W 118°16'0 0.0
2017-Nov-13 23:25N 33°46' W 118°16'0 0.0
2017-Nov-13 22:55N 33°46' W 118°16'0 0.0
2017-Nov-13 22:25N 33°46' W 118°16'0 0.0
2017-Nov-13 21:55N 33°46' W 118°16'0 0.0
2017-Nov-13 01:57N 33°46' W 118°16'0 0.0
2017-Nov-13 01:31N 33°46' W 118°16'0 0.0
2017-Nov-13 01:01N 33°46' W 118°16'0 0.0
2017-Nov-13 00:31N 33°46' W 118°16'0 0.0
2017-Nov-12 23:55N 33°46' W 118°16'0 0.0
2017-Nov-12 23:25N 33°46' W 118°16'0 0.0
2017-Nov-12 22:55N 33°46' W 118°16'0 0.0
2017-Nov-12 22:25N 33°46' W 118°16'0 0.0
2017-Nov-12 22:01N 33°46' W 118°16'0 0.0
2017-Nov-12 14:16N 33°46' W 118°16'0 0.0
2017-Nov-12 13:01N 33°46' W 118°16'0 0.0
2017-Nov-12 05:54N 33°46' W 118°16'0 0.0
2017-Nov-12 04:09N 33°46' W 118°16'0 0.0
2017-Nov-12 03:39N 33°46' W 118°16'0 0.0
2017-Nov-12 00:42N 33°46' W 118°16'  
2017-Nov-08 20:48N 33°46' W 118°16'0 0.0
2017-Nov-08 20:06N 33°46' W 118°16'0 0.0
2017-Nov-08 19:54N 33°46' W 118°16'0 0.0
2017-Nov-08 07:48N 33°46' W 118°16'0 0.0
2017-Nov-08 06:48N 33°46' W 118°16'0 0.0
2017-Nov-08 03:54N 33°46' W 118°16'0 0.0
2017-Nov-08 01:36N 33°46' W 118°16'0 0.0
2017-Nov-08 01:24N 33°46' W 118°16'0 0.0
2017-Nov-08 00:54N 33°46' W 118°16'0 0.0
2017-Nov-08 00:30N 33°46' W 118°16'0 0.0
2017-Nov-08 00:00N 33°46' W 118°16'0 0.0
2017-Nov-07 23:28N 33°46' W 118°16'1 1.2
2017-Nov-07 23:00N 33°45' W 118°16'1 2.5
2017-Nov-07 22:29N 33°44' W 118°16'3 5.6
2017-Nov-07 22:00N 33°42' W 118°15'4 6.9
2017-Nov-07 21:25N 33°38' W 118°15'2 5.4
2017-Nov-07 21:00N 33°36' W 118°16'3 6.6
2017-Nov-07 20:30N 33°36' W 118°21'4 8.2
2017-Nov-07 20:00N 33°38' W 118°25'4 8.3
2017-Nov-07 19:30N 33°40' W 118°29'4 8.3
2017-Nov-07 19:00N 33°42' W 118°33'4 8.5
2017-Nov-07 18:30N 33°44' W 118°38'4 8.0
2017-Nov-07 17:58N 33°46' W 118°42'4 9.5
2017-Nov-07 17:30N 33°48' W 118°47'5 9.5
2017-Nov-07 17:00N 33°51' W 118°52'5 9.7
2017-Nov-07 16:30N 33°53' W 118°57'5 9.8
2017-Nov-07 15:57N 33°56' W 119°03'4 9.4
2017-Nov-07 15:30N 33°58' W 119°07'5 9.5
2017-Nov-07 15:00N 34°00' W 119°12'5 9.5
2017-Nov-07 14:30N 34°03' W 119°17'5 9.6
2017-Nov-07 14:00N 34°04' W 119°23'5 9.6
2017-Nov-07 13:30N 34°05' W 119°28'5 9.6
2017-Nov-07 13:00N 34°06' W 119°34'5 9.6
2017-Nov-07 12:30N 34°08' W 119°39'5 9.7
2017-Nov-07 12:00N 34°09' W 119°45'6 9.7
2017-Nov-07 11:22N 34°11' W 119°52'4 9.6
2017-Nov-07 10:56N 34°12' W 119°57'4 9.7
2017-Nov-07 10:28N 34°13' W 120°02'4 9.6
2017-Nov-07 10:00N 34°14' W 120°08'5 9.7
2017-Nov-07 09:27N 34°16' W 120°14'5 9.4
2017-Nov-07 08:58N 34°17' W 120°19'4 9.4
2017-Nov-07 08:31N 34°18' W 120°24'6 9.4
2017-Nov-07 07:55N 34°19' W 120°31'4 9.7
2017-Nov-07 07:28N 34°21' W 120°36'4 9.6
2017-Nov-07 07:00N 34°22' W 120°41'5 9.6
2017-Nov-07 06:30N 34°23' W 120°47'5 9.7
2017-Nov-07 06:00N 34°24' W 120°52'815.1
2017-Nov-07 05:30N 34°26' W 121°01'815.9
2017-Nov-07 05:00N 34°27' W 121°11'816.0
2017-Nov-07 04:30N 34°29' W 121°20'816.4
2017-Nov-07 04:00N 34°31' W 121°30'816.3
2017-Nov-07 03:30N 34°32' W 121°40'816.3
2017-Nov-07 03:00N 34°34' W 121°49'816.7
2017-Nov-07 02:31N 34°36' W 121°59'816.8
2017-Nov-07 02:00N 34°38' W 122°09'916.9
2017-Nov-07 01:30N 34°39' W 122°19'816.8
2017-Nov-07 01:01N 34°41' W 122°29'4 8.9
2017-Nov-07 00:31N 34°42' W 122°34'812.8
2017-Nov-06 23:55N 34°44' W 122°43'817.5
2017-Nov-06 23:29N 34°45' W 122°53'1017.5
2017-Nov-06 22:55N 34°47' W 123°04'817.8
2017-Nov-06 22:30N 34°49' W 123°13'1417.2
2017-Nov-06 21:42N 34°52' W 123°30'416.8
2017-Nov-06 21:30N 34°52' W 123°34'916.6
2017-Nov-06 20:57N 34°54' W 123°44'816.9
2017-Nov-06 20:30N 34°56' W 123°53'5 9.3
2017-Nov-06 20:00N 34°54' W 123°48'41618.1 320 / 71019.010.8 17.013.519.0
2017-Nov-05 21:00N 37°24' W 131°48'   350 / 111021.0 5.4 16.012.417.0
Track history (hours):
 
Tides and Currents Weather Stations Pressure Air Temp Water Temp Dewpoint Dewpoint Depression Visibility Wind Speed Wind Dir Waves Ship Positions

MOL Beacon

Last reported at 2017-Nov-15 17:30 UTC. Time now 2017-Nov-22 20:47 UTC.
Position N 34°26' W 124°52'.

Length 337 m.

Type: Cargo ship. MMSI: 400600310.

Date/timePositionNaut miles runAvg speedWind from/ knotsBaromVisibWave heightAir tempDewpointWater temp
2017-Nov-15 17:30N 34°26' W 124°52'814.7
2017-Nov-15 16:59N 34°26' W 124°43'815.0
2017-Nov-15 16:26N 34°26' W 124°33'715.3
2017-Nov-15 15:59N 34°26' W 124°25'1315.2
2017-Nov-15 15:09N 34°26' W 124°09'6614.9
2017-Nov-15 10:44N 34°26' W 122°50'314.7
2017-Nov-15 10:30N 34°26' W 122°46'714.5
2017-Nov-15 10:00N 34°26' W 122°37'1114.3
2017-Nov-15 09:14N 34°26' W 122°23'313.9
2017-Nov-15 09:00N 34°26' W 122°20'1014.3
2017-Nov-15 08:16N 34°26' W 122°07'414.3
2017-Nov-15 08:00N 34°26' W 122°02'714.0
2017-Nov-15 07:30N 34°26' W 121°54'713.8
2017-Nov-15 06:59N 34°26' W 121°45'714.3
2017-Nov-15 06:30N 34°26' W 121°37'714.6
2017-Nov-15 06:00N 34°26' W 121°28'714.5
2017-Nov-15 05:30N 34°26' W 121°19'714.6
2017-Nov-15 05:00N 34°26' W 121°10'714.3
2017-Nov-15 04:29N 34°26' W 121°01'714.0
2017-Nov-15 04:00N 34°26' W 120°53'5 9.8
2017-Nov-15 03:29N 34°25' W 120°47'5 9.6
2017-Nov-15 02:55N 34°24' W 120°41'4 9.6
2017-Nov-15 02:29N 34°23' W 120°36'7 9.7
2017-Nov-15 01:47N 34°21' W 120°28'3 9.6
2017-Nov-15 01:28N 34°20' W 120°25'6 9.7
2017-Nov-15 00:52N 34°19' W 120°18'4 9.7
2017-Nov-15 00:30N 34°18' W 120°14'5 9.6
2017-Nov-14 23:58N 34°16' W 120°08'5 9.8
2017-Nov-14 23:28N 34°15' W 120°02'6 9.7
2017-Nov-14 22:54N 34°13' W 119°55'4 9.5
2017-Nov-14 22:30N 34°12' W 119°51'5 9.3
2017-Nov-14 22:00N 34°11' W 119°46'5 9.7
2017-Nov-14 21:30N 34°10' W 119°40'5 9.7
2017-Nov-14 20:59N 34°09' W 119°34'5 9.8
2017-Nov-14 20:29N 34°07' W 119°28'5 9.7
2017-Nov-14 19:57N 34°06' W 119°23'510.9
2017-Nov-14 19:27N 34°04' W 119°16'511.1
2017-Nov-14 19:00N 34°02' W 119°11'611.3
2017-Nov-14 18:30N 33°59' W 119°05'611.5
2017-Nov-14 18:00N 33°57' W 118°59'611.5
2017-Nov-14 17:27N 33°53' W 118°52'511.4
2017-Nov-14 17:00N 33°51' W 118°47'611.5
2017-Nov-14 16:30N 33°48' W 118°41'611.5
2017-Nov-14 16:00N 33°45' W 118°35'611.6
2017-Nov-14 15:30N 33°42' W 118°29'611.3
2017-Nov-14 15:00N 33°39' W 118°23'611.0
2017-Nov-14 14:30N 33°38' W 118°16'4 8.9
2017-Nov-14 14:00N 33°43' W 118°15'3 5.2
2017-Nov-14 13:28N 33°45' W 118°17'0 0.7
2017-Nov-14 12:49N 33°46' W 118°16'0 0.0
2017-Nov-14 12:25N 33°46' W 118°16'0 0.0
2017-Nov-14 11:37N 33°46' W 118°16'0 0.0
2017-Nov-14 11:25N 33°46' W 118°16'0 0.0
2017-Nov-14 10:58N 33°46' W 118°16'0 0.0
2017-Nov-14 10:25N 33°46' W 118°16'0 0.0
2017-Nov-14 09:55N 33°46' W 118°16'0 0.0
2017-Nov-14 09:25N 33°46' W 118°16'0 0.0
2017-Nov-14 08:55N 33°46' W 118°16'0 0.0
2017-Nov-14 05:07N 33°46' W 118°16'0 0.0
2017-Nov-14 04:55N 33°46' W 118°16'0 0.0
2017-Nov-14 04:25N 33°46' W 118°16'0 0.0
2017-Nov-14 03:55N 33°46' W 118°16'0 0.0
2017-Nov-14 03:25N 33°46' W 118°16'0 0.0
2017-Nov-14 02:55N 33°46' W 118°16'0 0.0
2017-Nov-14 02:25N 33°46' W 118°16'0 0.0
2017-Nov-14 01:49N 33°46' W 118°16'0 0.0
2017-Nov-14 00:49N 33°46' W 118°16'0 0.0
2017-Nov-14 00:25N 33°46' W 118°16'0 0.0
2017-Nov-13 23:58N 33°46' W 118°16'0 0.0
2017-Nov-13 23:25N 33°46' W 118°16'0 0.0
2017-Nov-13 22:55N 33°46' W 118°16'0 0.0
2017-Nov-13 22:25N 33°46' W 118°16'0 0.0
2017-Nov-13 21:55N 33°46' W 118°16'0 0.0
2017-Nov-13 01:57N 33°46' W 118°16'0 0.0
2017-Nov-13 01:31N 33°46' W 118°16'0 0.0
2017-Nov-13 01:01N 33°46' W 118°16'0 0.0
2017-Nov-13 00:31N 33°46' W 118°16'0 0.0
2017-Nov-12 23:55N 33°46' W 118°16'0 0.0
2017-Nov-12 23:25N 33°46' W 118°16'0 0.0
2017-Nov-12 22:55N 33°46' W 118°16'0 0.0
2017-Nov-12 22:25N 33°46' W 118°16'0 0.0
2017-Nov-12 22:01N 33°46' W 118°16'0 0.0
2017-Nov-12 14:16N 33°46' W 118°16'0 0.0
2017-Nov-12 13:01N 33°46' W 118°16'0 0.0
2017-Nov-12 05:54N 33°46' W 118°16'0 0.0
2017-Nov-12 04:09N 33°46' W 118°16'0 0.0
2017-Nov-12 03:39N 33°46' W 118°16'0 0.0
2017-Nov-12 00:42N 33°46' W 118°16'  
2017-Nov-08 20:48N 33°46' W 118°16'0 0.0
2017-Nov-08 20:06N 33°46' W 118°16'0 0.0
2017-Nov-08 19:54N 33°46' W 118°16'0 0.0
2017-Nov-08 07:48N 33°46' W 118°16'0 0.0
2017-Nov-08 06:48N 33°46' W 118°16'0 0.0
2017-Nov-08 03:54N 33°46' W 118°16'0 0.0
2017-Nov-08 01:36N 33°46' W 118°16'0 0.0
2017-Nov-08 01:24N 33°46' W 118°16'0 0.0
2017-Nov-08 00:54N 33°46' W 118°16'0 0.0
2017-Nov-08 00:30N 33°46' W 118°16'0 0.0
2017-Nov-08 00:00N 33°46' W 118°16'0 0.0
2017-Nov-07 23:28N 33°46' W 118°16'1 1.2
2017-Nov-07 23:00N 33°45' W 118°16'1 2.5
2017-Nov-07 22:29N 33°44' W 118°16'3 5.6
2017-Nov-07 22:00N 33°42' W 118°15'4 6.9
2017-Nov-07 21:25N 33°38' W 118°15'2 5.4
2017-Nov-07 21:00N 33°36' W 118°16'3 6.6
2017-Nov-07 20:30N 33°36' W 118°21'4 8.2
2017-Nov-07 20:00N 33°38' W 118°25'4 8.3
2017-Nov-07 19:30N 33°40' W 118°29'4 8.3
2017-Nov-07 19:00N 33°42' W 118°33'4 8.5
2017-Nov-07 18:30N 33°44' W 118°38'4 8.0
2017-Nov-07 17:58N 33°46' W 118°42'4 9.5
2017-Nov-07 17:30N 33°48' W 118°47'5 9.5
2017-Nov-07 17:00N 33°51' W 118°52'5 9.7
2017-Nov-07 16:30N 33°53' W 118°57'5 9.8
2017-Nov-07 15:57N 33°56' W 119°03'4 9.4
2017-Nov-07 15:30N 33°58' W 119°07'5 9.5
2017-Nov-07 15:00N 34°00' W 119°12'5 9.5
2017-Nov-07 14:30N 34°03' W 119°17'5 9.6
2017-Nov-07 14:00N 34°04' W 119°23'5 9.6
2017-Nov-07 13:30N 34°05' W 119°28'5 9.6
2017-Nov-07 13:00N 34°06' W 119°34'5 9.6
2017-Nov-07 12:30N 34°08' W 119°39'5 9.7
2017-Nov-07 12:00N 34°09' W 119°45'6 9.7
2017-Nov-07 11:22N 34°11' W 119°52'4 9.6
2017-Nov-07 10:56N 34°12' W 119°57'4 9.7
2017-Nov-07 10:28N 34°13' W 120°02'4 9.6
2017-Nov-07 10:00N 34°14' W 120°08'5 9.7
2017-Nov-07 09:27N 34°16' W 120°14'5 9.4
2017-Nov-07 08:58N 34°17' W 120°19'4 9.4
2017-Nov-07 08:31N 34°18' W 120°24'6 9.4
2017-Nov-07 07:55N 34°19' W 120°31'4 9.7
2017-Nov-07 07:28N 34°21' W 120°36'4 9.6
2017-Nov-07 07:00N 34°22' W 120°41'5 9.6
2017-Nov-07 06:30N 34°23' W 120°47'5 9.7
2017-Nov-07 06:00N 34°24' W 120°52'815.1
2017-Nov-07 05:30N 34°26' W 121°01'815.9
2017-Nov-07 05:00N 34°27' W 121°11'816.0
2017-Nov-07 04:30N 34°29' W 121°20'816.4
2017-Nov-07 04:00N 34°31' W 121°30'816.3
2017-Nov-07 03:30N 34°32' W 121°40'816.3
2017-Nov-07 03:00N 34°34' W 121°49'816.7
2017-Nov-07 02:31N 34°36' W 121°59'816.8
2017-Nov-07 02:00N 34°38' W 122°09'916.9
2017-Nov-07 01:30N 34°39' W 122°19'816.8
2017-Nov-07 01:01N 34°41' W 122°29'4 8.9
2017-Nov-07 00:31N 34°42' W 122°34'812.8
2017-Nov-06 23:55N 34°44' W 122°43'817.5
2017-Nov-06 23:29N 34°45' W 122°53'1017.5
2017-Nov-06 22:55N 34°47' W 123°04'817.8
2017-Nov-06 22:30N 34°49' W 123°13'1417.2
2017-Nov-06 21:42N 34°52' W 123°30'416.8
2017-Nov-06 21:30N 34°52' W 123°34'916.6
2017-Nov-06 20:57N 34°54' W 123°44'816.9
2017-Nov-06 20:30N 34°56' W 123°53'5 9.3
2017-Nov-06 20:00N 34°54' W 123°48'41618.1 320 / 71019.010.8 17.013.519.0
2017-Nov-05 21:00N 37°24' W 131°48'   350 / 111021.0 5.4 16.012.417.0

Dump ship's entire track history